sensor_id;sensor_type;location;lat;lon;timestamp;temperature;humidity
11454;DHT22;5783;55.174;61.310;2024-01-15T07:32:06;28.40;15.50
11454;DHT22;5783;55.174;61.310;2024-01-15T07:34:34;28.70;9.80
11454;DHT22;5783;55.174;61.310;2024-01-15T07:39:27;29.80;14.40
11454;DHT22;5783;55.174;61.310;2024-01-15T07:41:56;29.40;10.30
11454;DHT22;5783;55.174;61.310;2024-01-15T07:44:25;28.60;9.70
11454;DHT22;5783;55.174;61.310;2024-01-15T07:46:53;28.50;9.70
11454;DHT22;5783;55.174;61.310;2024-01-15T07:49:23;28.50;10.10
11454;DHT22;5783;55.174;61.310;2024-01-15T07:51:51;28.40;9.80
11454;DHT22;5783;55.174;61.310;2024-01-15T07:54:20;28.40;10.40
11454;DHT22;5783;55.174;61.310;2024-01-15T07:59:37;28.30;9.90
11454;DHT22;5783;55.174;61.310;2024-01-15T08:12:25;27.90;9.00
11454;DHT22;5783;55.174;61.310;2024-01-15T08:14:54;27.80;10.10
11454;DHT22;5783;55.174;61.310;2024-01-15T09:12:41;27.80;10.10
11454;DHT22;5783;55.174;61.310;2024-01-15T09:15:11;27.80;10.10
11454;DHT22;5783;55.174;61.310;2024-01-15T09:25:27;27.70;10.10
11454;DHT22;5783;55.174;61.310;2024-01-15T09:27:56;27.80;10.70
11454;DHT22;5783;55.174;61.310;2024-01-15T09:30:25;27.80;10.70
11454;DHT22;5783;55.174;61.310;2024-01-15T09:32:54;27.70;10.50
11454;DHT22;5783;55.174;61.310;2024-01-15T09:35:24;27.70;10.70
11454;DHT22;5783;55.174;61.310;2024-01-15T09:37:53;27.70;10.50
11454;DHT22;5783;55.174;61.310;2024-01-15T09:40:24;27.80;10.60
11454;DHT22;5783;55.174;61.310;2024-01-15T11:03:30;27.90;10.30
11454;DHT22;5783;55.174;61.310;2024-01-15T11:06:00;27.90;10.60
11454;DHT22;5783;55.174;61.310;2024-01-15T11:08:30;27.70;9.90
11454;DHT22;5783;55.174;61.310;2024-01-15T11:11:00;27.50;10.20
11454;DHT22;5783;55.174;61.310;2024-01-15T11:13:49;27.40;10.50
11454;DHT22;5783;55.174;61.310;2024-01-15T11:16:19;27.20;10.50
11454;DHT22;5783;55.174;61.310;2024-01-15T11:19:08;27.20;11.00
11454;DHT22;5783;55.174;61.310;2024-01-15T11:21:41;27.30;10.70
11454;DHT22;5783;55.174;61.310;2024-01-15T11:24:09;27.30;10.80
11454;DHT22;5783;55.174;61.310;2024-01-15T11:29:31;27.40;10.70
11454;DHT22;5783;55.174;61.310;2024-01-15T11:34:54;27.50;10.70
11454;DHT22;5783;55.174;61.310;2024-01-15T11:38:02;27.40;10.70
11454;DHT22;5783;55.174;61.310;2024-01-15T11:43:07;27.70;10.50
11454;DHT22;5783;55.174;61.310;2024-01-15T11:45:36;27.70;10.50
11454;DHT22;5783;55.174;61.310;2024-01-15T11:48:27;27.80;10.50
11454;DHT22;5783;55.174;61.310;2024-01-15T11:51:01;27.80;10.50
11454;DHT22;5783;55.174;61.310;2024-01-15T11:53:51;27.70;10.50
11454;DHT22;5783;55.174;61.310;2024-01-15T11:56:23;27.80;11.00
11454;DHT22;5783;55.174;61.310;2024-01-15T12:01:41;27.70;10.70
11454;DHT22;5783;55.174;61.310;2024-01-15T12:04:10;27.60;10.60
11454;DHT22;5783;55.174;61.310;2024-01-15T12:06:40;27.50;10.60
11454;DHT22;5783;55.174;61.310;2024-01-15T12:09:09;27.50;11.00
11454;DHT22;5783;55.174;61.310;2024-01-15T12:11:40;27.50;10.50
11454;DHT22;5783;55.174;61.310;2024-01-15T12:14:10;27.50;10.50
11454;DHT22;5783;55.174;61.310;2024-01-15T12:16:40;27.50;10.50
11454;DHT22;5783;55.174;61.310;2024-01-15T12:19:10;27.50;10.50
11454;DHT22;5783;55.174;61.310;2024-01-15T12:21:40;27.50;10.50
11454;DHT22;5783;55.174;61.310;2024-01-15T12:24:09;27.50;10.50
11454;DHT22;5783;55.174;61.310;2024-01-15T12:26:38;27.50;11.00
11454;DHT22;5783;55.174;61.310;2024-01-15T12:29:08;27.70;10.50
11454;DHT22;5783;55.174;61.310;2024-01-15T12:31:37;27.80;10.50
11454;DHT22;5783;55.174;61.310;2024-01-15T12:34:06;27.80;10.70
11454;DHT22;5783;55.174;61.310;2024-01-15T12:36:35;27.90;10.40
11454;DHT22;5783;55.174;61.310;2024-01-15T12:39:05;27.90;10.40
11454;DHT22;5783;55.174;61.310;2024-01-15T12:41:35;27.90;10.90
11454;DHT22;5783;55.174;61.310;2024-01-15T12:44:05;28.00;10.80
11454;DHT22;5783;55.174;61.310;2024-01-15T12:46:35;27.90;11.00
11454;DHT22;5783;55.174;61.310;2024-01-15T12:49:05;27.80;10.70
11454;DHT22;5783;55.174;61.310;2024-01-15T12:51:35;27.80;11.20
11454;DHT22;5783;55.174;61.310;2024-01-15T12:54:05;27.80;11.20
11454;DHT22;5783;55.174;61.310;2024-01-15T12:56:34;27.80;11.10
11454;DHT22;5783;55.174;61.310;2024-01-15T12:59:03;27.80;11.20
11454;DHT22;5783;55.174;61.310;2024-01-15T13:01:33;27.70;10.50
11454;DHT22;5783;55.174;61.310;2024-01-15T13:04:02;27.70;11.00
11454;DHT22;5783;55.174;61.310;2024-01-15T13:06:33;27.70;10.60
11454;DHT22;5783;55.174;61.310;2024-01-15T13:09:04;27.70;10.50
11454;DHT22;5783;55.174;61.310;2024-01-15T13:11:33;27.90;10.70
11454;DHT22;5783;55.174;61.310;2024-01-15T13:14:02;27.80;11.10
11454;DHT22;5783;55.174;61.310;2024-01-15T13:16:32;27.90;10.60
11454;DHT22;5783;55.174;61.310;2024-01-15T13:21:30;27.90;10.60
11454;DHT22;5783;55.174;61.310;2024-01-15T13:23:59;27.90;11.10
11454;DHT22;5783;55.174;61.310;2024-01-15T13:26:28;27.90;10.50
11454;DHT22;5783;55.174;61.310;2024-01-15T13:28:57;28.00;10.90
11454;DHT22;5783;55.174;61.310;2024-01-15T13:31:25;28.00;10.40
11454;DHT22;5783;55.174;61.310;2024-01-15T13:33:55;28.00;10.80
11454;DHT22;5783;55.174;61.310;2024-01-15T13:36:25;28.00;10.60
11454;DHT22;5783;55.174;61.310;2024-01-15T13:38:55;28.00;10.80
11454;DHT22;5783;55.174;61.310;2024-01-15T13:41:24;27.90;10.50
11454;DHT22;5783;55.174;61.310;2024-01-15T13:44:13;27.90;10.50
11454;DHT22;5783;55.174;61.310;2024-01-15T13:46:42;27.90;10.90
11454;DHT22;5783;55.174;61.310;2024-01-15T13:49:11;27.80;10.30
11454;DHT22;5783;55.174;61.310;2024-01-15T13:51:41;27.80;10.50
11454;DHT22;5783;55.174;61.310;2024-01-15T13:54:10;27.90;10.20
11454;DHT22;5783;55.174;61.310;2024-01-15T13:56:39;27.90;10.30
11454;DHT22;5783;55.174;61.310;2024-01-15T13:59:09;27.90;10.40
11454;DHT22;5783;55.174;61.310;2024-01-15T14:01:38;27.80;10.40
11454;DHT22;5783;55.174;61.310;2024-01-15T14:04:08;27.80;10.40
11454;DHT22;5783;55.174;61.310;2024-01-15T14:06:37;27.80;10.30
11454;DHT22;5783;55.174;61.310;2024-01-15T14:09:06;27.90;10.90
11454;DHT22;5783;55.174;61.310;2024-01-15T14:11:37;27.80;10.30
11454;DHT22;5783;55.174;61.310;2024-01-15T14:14:06;27.80;11.00
11454;DHT22;5783;55.174;61.310;2024-01-15T14:16:36;27.80;11.40
11454;DHT22;5783;55.174;61.310;2024-01-15T14:19:05;27.80;11.20
11454;DHT22;5783;55.174;61.310;2024-01-15T14:21:36;27.90;10.70
11454;DHT22;5783;55.174;61.310;2024-01-15T14:24:05;27.90;11.10
11454;DHT22;5783;55.174;61.310;2024-01-15T14:26:34;27.90;10.70
11454;DHT22;5783;55.174;61.310;2024-01-15T14:29:03;27.90;10.60
11454;DHT22;5783;55.174;61.310;2024-01-15T14:31:32;27.90;10.70
11454;DHT22;5783;55.174;61.310;2024-01-15T14:34:01;27.90;10.70
11454;DHT22;5783;55.174;61.310;2024-01-15T14:36:31;27.90;10.70
11454;DHT22;5783;55.174;61.310;2024-01-15T14:39:00;28.00;10.80
11454;DHT22;5783;55.174;61.310;2024-01-15T14:41:30;28.00;10.80
11454;DHT22;5783;55.174;61.310;2024-01-15T14:43:59;27.80;25.40
11454;DHT22;5783;55.174;61.310;2024-01-15T14:46:29;28.50;27.00
11454;DHT22;5783;55.174;61.310;2024-01-15T14:49:14;28.10;11.10
11454;DHT22;5783;55.174;61.310;2024-01-15T14:51:44;28.30;11.70
11454;DHT22;5783;55.174;61.310;2024-01-15T14:54:13;28.00;11.10
11454;DHT22;5783;55.174;61.310;2024-01-15T14:56:42;28.10;11.30
11454;DHT22;5783;55.174;61.310;2024-01-15T15:04:08;28.40;11.00
11454;DHT22;5783;55.174;61.310;2024-01-15T15:06:37;28.40;11.50
11454;DHT22;5783;55.174;61.310;2024-01-15T15:11:34;28.50;11.20
11454;DHT22;5783;55.174;61.310;2024-01-15T15:16:21;29.70;11.90
11454;DHT22;5783;55.174;61.310;2024-01-15T15:18:49;28.60;11.70
11454;DHT22;5783;55.174;61.310;2024-01-15T15:21:17;28.70;11.20
11454;DHT22;5783;55.174;61.310;2024-01-15T15:23:45;28.70;11.20
11454;DHT22;5783;55.174;61.310;2024-01-15T15:26:13;28.80;11.30
11454;DHT22;5783;55.174;61.310;2024-01-15T15:28:42;30.30;15.40
11454;DHT22;5783;55.174;61.310;2024-01-15T15:31:10;28.80;11.30
11454;DHT22;5783;55.174;61.310;2024-01-15T15:33:38;28.90;11.30
11454;DHT22;5783;55.174;61.310;2024-01-15T15:38:34;29.70;19.40
11454;DHT22;5783;55.174;61.310;2024-01-15T15:43:30;29.00;11.30
11454;DHT22;5783;55.174;61.310;2024-01-15T15:48:30;29.10;11.40
11454;DHT22;5783;55.174;61.310;2024-01-15T15:50:59;28.40;12.30
11454;DHT22;5783;55.174;61.310;2024-01-15T15:53:28;29.90;22.30
11454;DHT22;5783;55.174;61.310;2024-01-15T15:55:56;28.90;21.00
11454;DHT22;5783;55.174;61.310;2024-01-15T15:58:25;29.30;24.60
11454;DHT22;5783;55.174;61.310;2024-01-15T16:00:54;29.20;28.90
11454;DHT22;5783;55.174;61.310;2024-01-15T16:03:22;28.40;21.80
11454;DHT22;5783;55.174;61.310;2024-01-15T16:05:50;29.80;24.50
11454;DHT22;5783;55.174;61.310;2024-01-15T16:13:33;28.60;21.30
11454;DHT22;5783;55.174;61.310;2024-01-15T16:18:29;29.90;14.50
11454;DHT22;5783;55.174;61.310;2024-01-15T16:20:57;29.40;17.90
11454;DHT22;5783;55.174;61.310;2024-01-15T16:23:26;29.10;14.40
11454;DHT22;5783;55.174;61.310;2024-01-15T16:25:54;29.70;18.40
11454;DHT22;5783;55.174;61.310;2024-01-15T16:30:52;29.50;15.70
11454;DHT22;5783;55.174;61.310;2024-01-15T16:35:48;29.00;16.10
11454;DHT22;5783;55.174;61.310;2024-01-15T16:38:16;29.10;11.80
11454;DHT22;5783;55.174;61.310;2024-01-15T16:40:45;28.80;14.10
11454;DHT22;5783;55.174;61.310;2024-01-15T16:45:40;30.00;18.60
11454;DHT22;5783;55.174;61.310;2024-01-15T16:50:36;29.10;14.00
11454;DHT22;5783;55.174;61.310;2024-01-15T16:53:24;30.20;11.90
11454;DHT22;5783;55.174;61.310;2024-01-15T16:55:54;29.20;12.20
11454;DHT22;5783;55.174;61.310;2024-01-15T16:58:23;29.10;11.70
11454;DHT22;5783;55.174;61.310;2024-01-15T17:00:51;29.70;12.00
11454;DHT22;5783;55.174;61.310;2024-01-15T17:05:47;29.40;11.30
11454;DHT22;5783;55.174;61.310;2024-01-15T17:18:08;29.20;12.50
11454;DHT22;5783;55.174;61.310;2024-01-15T17:23:07;29.40;12.90
11454;DHT22;5783;55.174;61.310;2024-01-15T17:25:35;30.10;11.90
11454;DHT22;5783;55.174;61.310;2024-01-15T17:28:04;30.00;11.80
11454;DHT22;5783;55.174;61.310;2024-01-15T17:32:59;29.50;11.40
11454;DHT22;5783;55.174;61.310;2024-01-15T17:35:28;29.50;11.40
11454;DHT22;5783;55.174;61.310;2024-01-15T17:37:56;29.60;11.80
11454;DHT22;5783;55.174;61.310;2024-01-15T17:40:24;29.70;12.10
11454;DHT22;5783;55.174;61.310;2024-01-15T17:45:20;29.40;11.40
11454;DHT22;5783;55.174;61.310;2024-01-15T17:50:16;30.10;12.60
11454;DHT22;5783;55.174;61.310;2024-01-15T17:52:44;29.40;11.70
11454;DHT22;5783;55.174;61.310;2024-01-15T17:55:13;29.20;11.90
11454;DHT22;5783;55.174;61.310;2024-01-15T17:57:41;30.20;12.30
11454;DHT22;5783;55.174;61.310;2024-01-15T18:00:10;29.40;11.30
11454;DHT22;5783;55.174;61.310;2024-01-15T18:02:41;29.30;12.40
11454;DHT22;5783;55.174;61.310;2024-01-15T18:05:09;29.60;12.20
11454;DHT22;5783;55.174;61.310;2024-01-15T18:10:44;29.10;12.50
11454;DHT22;5783;55.174;61.310;2024-01-15T18:15:40;30.00;14.10
11454;DHT22;5783;55.174;61.310;2024-01-15T18:20:36;30.00;12.30
11454;DHT22;5783;55.174;61.310;2024-01-15T18:23:04;30.40;14.90
11454;DHT22;5783;55.174;61.310;2024-01-15T18:25:32;29.30;14.90
11454;DHT22;5783;55.174;61.310;2024-01-15T18:30:28;29.10;15.00
11454;DHT22;5783;55.174;61.310;2024-01-15T18:35:25;29.20;13.80
11454;DHT22;5783;55.174;61.310;2024-01-15T18:40:21;29.50;13.30
11454;DHT22;5783;55.174;61.310;2024-01-15T18:42:49;29.10;16.50
11454;DHT22;5783;55.174;61.310;2024-01-15T18:45:17;30.20;15.70
11454;DHT22;5783;55.174;61.310;2024-01-15T18:47:46;30.60;17.20
11454;DHT22;5783;55.174;61.310;2024-01-15T18:50:14;29.30;11.50
11454;DHT22;5783;55.174;61.310;2024-01-15T18:52:43;30.60;15.50
11454;DHT22;5783;55.174;61.310;2024-01-15T18:55:12;30.60;19.40
11454;DHT22;5783;55.174;61.310;2024-01-15T18:57:40;29.60;13.30
11454;DHT22;5783;55.174;61.310;2024-01-15T19:00:09;30.50;15.50
11454;DHT22;5783;55.174;61.310;2024-01-15T19:02:37;30.00;17.60
11454;DHT22;5783;55.174;61.310;2024-01-15T19:07:34;29.20;14.30
11454;DHT22;5783;55.174;61.310;2024-01-15T19:10:02;30.40;14.50
11454;DHT22;5783;55.174;61.310;2024-01-15T19:14:58;30.20;20.40
11454;DHT22;5783;55.174;61.310;2024-01-15T19:17:27;29.90;18.50
11454;DHT22;5783;55.174;61.310;2024-01-15T19:22:22;29.50;18.00
11454;DHT22;5783;55.174;61.310;2024-01-15T19:27:18;29.40;18.40
11454;DHT22;5783;55.174;61.310;2024-01-15T19:29:46;30.00;20.70
11454;DHT22;5783;55.174;61.310;2024-01-15T19:39:38;29.80;24.20
11454;DHT22;5783;55.174;61.310;2024-01-15T19:42:07;30.20;18.10
11454;DHT22;5783;55.174;61.310;2024-01-15T19:44:35;30.00;12.70
11454;DHT22;5783;55.174;61.310;2024-01-15T19:47:03;30.70;15.80
11454;DHT22;5783;55.174;61.310;2024-01-15T19:49:31;30.40;17.20
11454;DHT22;5783;55.174;61.310;2024-01-15T19:52:00;29.30;19.00
11454;DHT22;5783;55.174;61.310;2024-01-15T19:56:56;30.70;23.20
11454;DHT22;5783;55.174;61.310;2024-01-15T19:59:24;29.30;25.20
11454;DHT22;5783;55.174;61.310;2024-01-15T20:01:52;29.20;20.60
11454;DHT22;5783;55.174;61.310;2024-01-15T20:06:48;30.90;26.00
11454;DHT22;5783;55.174;61.310;2024-01-15T20:09:17;30.80;23.40
11454;DHT22;5783;55.174;61.310;2024-01-15T20:14:12;29.90;26.60
11454;DHT22;5783;55.174;61.310;2024-01-15T20:19:12;29.90;16.10
11454;DHT22;5783;55.174;61.310;2024-01-15T20:26:37;29.40;20.90
11454;DHT22;5783;55.174;61.310;2024-01-15T20:29:05;29.80;23.10
11454;DHT22;5783;55.174;61.310;2024-01-15T20:31:34;29.60;27.20
11454;DHT22;5783;55.174;61.310;2024-01-15T20:34:02;29.60;25.50
11454;DHT22;5783;55.174;61.310;2024-01-15T20:38:58;29.30;22.50
11454;DHT22;5783;55.174;61.310;2024-01-15T20:43:53;30.70;28.40
11454;DHT22;5783;55.174;61.310;2024-01-15T20:48:50;29.70;24.60
11454;DHT22;5783;55.174;61.310;2024-01-15T20:51:19;30.90;29.60
11454;DHT22;5783;55.174;61.310;2024-01-15T20:53:47;29.50;27.00
11454;DHT22;5783;55.174;61.310;2024-01-15T21:01:11;29.80;21.70
11454;DHT22;5783;55.174;61.310;2024-01-15T21:03:40;29.70;25.90
11454;DHT22;5783;55.174;61.310;2024-01-15T21:06:09;30.20;26.60
11454;DHT22;5783;55.174;61.310;2024-01-15T21:08:38;30.70;25.50
11454;DHT22;5783;55.174;61.310;2024-01-15T21:16:05;29.40;23.30
11454;DHT22;5783;55.174;61.310;2024-01-15T21:21:02;29.90;25.70
11454;DHT22;5783;55.174;61.310;2024-01-15T21:23:31;31.00;25.80
11454;DHT22;5783;55.174;61.310;2024-01-15T21:26:01;29.60;23.70
11454;DHT22;5783;55.174;61.310;2024-01-15T21:28:30;30.90;24.90
11454;DHT22;5783;55.174;61.310;2024-01-15T21:33:28;29.70;21.00
11454;DHT22;5783;55.174;61.310;2024-01-15T21:35:58;30.30;21.60
11454;DHT22;5783;55.174;61.310;2024-01-15T21:40:56;30.00;23.00
11454;DHT22;5783;55.174;61.310;2024-01-15T21:43:24;30.60;23.50
11454;DHT22;5783;55.174;61.310;2024-01-15T21:48:21;29.80;18.70
11454;DHT22;5783;55.174;61.310;2024-01-15T21:50:49;29.90;23.40
11454;DHT22;5783;55.174;61.310;2024-01-15T21:53:18;29.40;23.70
11454;DHT22;5783;55.174;61.310;2024-01-15T21:55:47;30.60;23.00
11454;DHT22;5783;55.174;61.310;2024-01-15T21:58:15;29.50;25.70
11454;DHT22;5783;55.174;61.310;2024-01-15T22:00:44;29.40;19.90
11454;DHT22;5783;55.174;61.310;2024-01-15T22:03:12;30.20;25.40
11454;DHT22;5783;55.174;61.310;2024-01-15T22:05:42;30.20;29.00
11454;DHT22;5783;55.174;61.310;2024-01-15T22:08:11;29.40;27.00
11454;DHT22;5783;55.174;61.310;2024-01-15T22:10:39;29.90;26.20
11454;DHT22;5783;55.174;61.310;2024-01-15T22:13:07;30.20;27.50
11454;DHT22;5783;55.174;61.310;2024-01-15T22:15:36;30.70;22.80
11454;DHT22;5783;55.174;61.310;2024-01-15T22:18:04;30.60;26.20
11454;DHT22;5783;55.174;61.310;2024-01-15T22:20:33;30.90;28.10
11454;DHT22;5783;55.174;61.310;2024-01-15T22:28:00;30.70;27.00
11454;DHT22;5783;55.174;61.310;2024-01-15T22:35:27;29.80;27.30
11454;DHT22;5783;55.174;61.310;2024-01-15T22:42:55;30.60;25.70
11454;DHT22;5783;55.174;61.310;2024-01-15T22:45:24;31.20;26.00
11454;DHT22;5783;55.174;61.310;2024-01-15T22:57:47;29.50;23.70
11454;DHT22;5783;55.174;61.310;2024-01-15T23:02:46;30.70;20.30
11454;DHT22;5783;55.174;61.310;2024-01-15T23:05:16;31.20;26.80
11454;DHT22;5783;55.174;61.310;2024-01-15T23:10:14;29.60;17.30
11454;DHT22;5783;55.174;61.310;2024-01-15T23:17:43;29.50;24.20
11454;DHT22;5783;55.174;61.310;2024-01-15T23:22:41;31.10;20.10
11454;DHT22;5783;55.174;61.310;2024-01-15T23:25:11;30.70;22.80
11454;DHT22;5783;55.174;61.310;2024-01-15T23:32:37;29.90;27.40
11454;DHT22;5783;55.174;61.310;2024-01-15T23:37:36;29.90;28.00
11454;DHT22;5783;55.174;61.310;2024-01-15T23:42:34;30.30;26.90
11454;DHT22;5783;55.174;61.310;2024-01-15T23:50:01;30.40;27.40
11454;DHT22;5783;55.174;61.310;2024-01-15T23:52:31;30.60;29.40
11454;DHT22;5783;55.174;61.310;2024-01-15T23:55:00;30.40;27.30
11454;DHT22;5783;55.174;61.310;2024-01-15T23:57:32;30.70;24.90
